CYPH

Inukjuak Airport

ICAO Code CYPH
IATA Code YPH
Name Inukjuak Airport
Location Inukjuak, Quebec, CA
Elevation 86 Feet / 26.2 Meters
Latitude 58.47194444
Longitude -78.07694444
METAR CYPH 080600Z AUTO 07004KT 030V120 9SM CLR M03/M05 A3010 RMK SLP198
Extra information Display Charts and CFS
Display NOTAMS
Runway Length Width Surface Elevation
07 3520 ft 100 ft GRAVEL 78 ft
25 3520 ft 100 ft GRAVEL 77 ft